Central Aleutians 230nm Sw Dutch Harbor (46072) Wave Buoy

4:50pm - Fri 21st Oct 2016 All times are UTC.

  • Sig Wave height 4.9ft
  • Swell Direction
  • Peak Period 10s
  • Average Period 6s
  • Wind
    18mph, 22mph gusts
  • Sea Temp 49°f
  • Air Temp 47°f
  • Sea Pressure 1012.2mb

More Historic Weather Station data

Upgrade to MSW Pro to gain access to the past 30 days of data for over 8000 Wavebouys and Weather Stations around the globe.

Join Pro

Comparision Forecast

View Surf forecast
Fri 10/21 4:50pm 5ft 10s 6s 18 22 mph 1012.2mb 49f 47f
3:50pm 5ft 10s 6s 16 20 mph 1012.2mb 49f 47f
2:50pm 5ft 10s 6s 16 20 mph 1012.3mb 49f 47f
1:50pm 6.5ft 9s 7s 16 18 mph 1012.8mb 49f 48f
12:50pm 7ft 9s 7s 16 18 mph 1013.2mb 49f 48f
11:50am 6.5ft 10s 7s 13 16 mph 1013.8mb 49f 47f
10:50am 7ft 10s 7s 11 13 mph 1014mb 49f 47f
9:50am 7ft 9s 8s 7 9 mph 1014.2mb 49f 46f
8:50am 6ft 9s 7s 4 9 mph 1014.8mb 49f 45f
7:50am 6ft 11s 7s 11 13 mph 1015.1mb 49f 45f
6:50am 7ft 10s 8s 4 7 mph 1015.3mb 49f 46f
5:50am 7ft 10s 7s 7 11 mph 1015.2mb 49f 47f
4:50am 7.5ft 9s 7s 7 9 mph 1014.8mb 49f 47f
2:50am 8ft 9s 7s 7 9 mph 1014.9mb 49f 48f
1:50am 9ft 9s 7s 9 11 mph 1014.9mb 49f 48f
12:50am 8.5ft 9s 7s 9 11 mph 1014.7mb 49f 47f
Thu 10/20 11:50pm 9.5ft 10s 7s 9 11 mph 1014.6mb 50f 48f
9:50pm 8.5ft 10s 7s 13 18 mph 1014.1mb 49f 47f
8:50pm 8ft 8s 7s 13 16 mph 1013.4mb 49f 48f
7:50pm 6.5ft 8s 7s 11 13 mph 1013mb 49f 47f
6:50pm 7ft 8s 7s 13 18 mph 1012.3mb 49f 47f
5:50pm 6.5ft 7s 6s 16 18 mph 1011.4mb 49f 47f
4:50pm 7ft 10s 6s 16 20 mph 1010.5mb 49f 48f
3:50pm 7ft 7s 6s 16 20 mph 1009.6mb 49f 48f
2:50pm 6.5ft 7s 6s 22 27 mph 1009.1mb 49f 47f
1:50pm 6ft 6s 6s 25 29 mph 1008.7mb 49f 47f
12:50pm 6.5ft 9s 6s 22 27 mph 1008.4mb 49f 47f
11:50am 6.5ft 9s 6s 22 29 mph 1008.4mb 49f 48f
10:50am 7ft 9s 7s 20 25 mph 1008.5mb 49f 48f
9:50am 6.5ft 9s 7s 18 22 mph 1008.7mb 49f 45f
8:50am 6.5ft 9s 7s 18 20 mph 1009.3mb 49f 44f
7:50am 6ft 9s 7s 16 20 mph 1009.7mb 49f 44f
6:50am 5ft 10s 7s 13 18 mph 1009.8mb 49f 45f
5:50am 6ft 9s 8s 9 13 mph 1009.9mb 49f 44f
4:50am 6.5ft 9s 7s 7 11 mph 1010mb 49f 45f
3:50am 7ft 9s 7s 7 11 mph 1009.7mb 49f 45f
2:50am 7ft 9s 7s 4 7 mph 1009.5mb 49f 45f
1:50am 8ft 8s 7s 4 9 mph 1010mb 49f 45f
12:50am 9ft 9s 7s 7 13 mph 1010.6mb 49f 45f
Wed 10/19 11:50pm 8.5ft 10s 7s 2 4 mph 1010.2mb 49f 45f
10:50pm 7.5ft 9s 7s 4 9 mph 1011.3mb 49f 45f
9:50pm 7.5ft 11s 8s 4 7 mph 1011.5mb 49f 44f
8:50pm 8ft 10s 8s 7 11 mph 1011.5mb 49f 44f
7:50pm 8.5ft 10s 8s 9 11 mph 1011.8mb 49f 44f
6:50pm 6ft 10s 7s 9 16 mph 1011.6mb 49f 44f
5:50pm 7.5ft 11s 7s 13 16 mph 1011.4mb 49f 44f
4:50pm 7.5ft 11s 7s 13 18 mph 1011.1mb 49f 44f
3:50pm 7.5ft 11s 7s 18 22 mph 1011.2mb 49f 45f
2:50pm 8.5ft 11s 7s 22 29 mph 1011.3mb 49f 43f
1:50pm 10ft 10s 7s 22 25 mph 1011mb 49f 45f
12:50pm 11ft 10s 7s 22 29 mph 1010.9mb 49f 45f
11:50am 11.5ft 11s 7s 22 27 mph 1010.8mb 49f 45f
10:50am 12ft 10s 7s 22 27 mph 1010.8mb 49f 45f
9:50am 13ft 10s 7s 18 22 mph 1010.8mb 49f 44f
8:50am 12ft 10s 7s 27 31 mph 1010.1mb 49f 44f
7:50am 12ft 11s 8s 20 27 mph 1010.1mb 49f 44f
6:50am 11ft 11s 7s 27 34 mph 1009.2mb 49f 44f
5:50am 10.5ft 11s 7s 27 34 mph 1009mb 49f 45f
4:50am 10ft 11s 7s 27 31 mph 1008.2mb 49f 45f
3:50am 10ft 11s 7s 27 34 mph 1007.9mb 49f 43f
2:50am 11ft 11s 7s 29 36 mph 1007.2mb 49f 45f
1:50am 11ft 9s 7s 29 34 mph 1006.8mb 49f 45f
12:50am 12.5ft 10s 7s 22 27 mph 1007.1mb 49f 44f
Tue 10/18 11:50pm 12.5ft 8s 7s 25 29 mph 1006.8mb 49f 44f
10:50pm 12ft 8s 7s 22 31 mph 1006.7mb 49f 44f
9:50pm 11ft 9s 7s 20 27 mph 1006.5mb 49f 44f
8:50pm 11.5ft 12s 7s 25 31 mph 1005.9mb 50f 43f
7:50pm 9.5ft 11s 7s 27 31 mph 1005.4mb 49f 43f
6:50pm 9.5ft 13s 7s 22 31 mph 1005.1mb 50f 44f
5:50pm 9ft 13s 7s 34 40 mph 1004.1mb 50f 42f
4:50pm 8.5ft 13s 7s 25 29 mph 1004mb 50f 42f
3:50pm 8ft 13s 7s 27 31 mph 1003.5mb 50f 43f
2:50pm 8ft 14s 7s 25 29 mph 1003.1mb 49f 43f
1:50pm 8ft 14s 7s 20 25 mph 1003.2mb 50f 42f
12:50pm 8.5ft 12s 7s 20 25 mph 1003mb 50f 43f
11:50am 9.5ft 13s 7s 25 29 mph 1002.6mb 50f 42f
10:50am 10ft 14s 7s 25 29 mph 1002.3mb 50f 44f
9:50am 9ft 7s 7s 22 27 mph 1002.5mb 50f 44f
8:50am 9ft 6s 6s 25 29 mph 1002mb 50f 44f
7:50am 8ft 7s 6s 20 25 mph 1001.8mb 50f 44f
6:50am 7ft 6s 6s 25 31 mph 1001.1mb 50f 46f
5:50am 6ft 7s 6s 22 29 mph 1000.8mb 50f 45f
4:50am 5ft 6s 5s 18 22 mph 1000.6mb 50f 45f
3:50am 5ft 5s 5s 22 27 mph 999.9mb 50f 46f
2:50am 4.5ft 5s 5s 20 27 mph 999.6mb 50f 46f
1:50am 4.5ft 5s 5s 18 25 mph 999.4mb 50f 45f
12:50am 5ft 5s 5s 20 25 mph 999.2mb 50f 44f
Mon 10/17 11:50pm 5ft 5s 5s 25 29 mph 999mb 50f 46f
9:50pm 4.5ft 6s 5s 25 31 mph 999.5mb 50f 46f
8:50pm 4.5ft 6s 5s 22 27 mph 1000mb 50f 46f
7:50pm 3.5ft 4s 5s 20 25 mph 1000.3mb 50f 46f
6:50pm 3.5ft 8s 5s 18 20 mph 1000.4mb 50f 45f
5:50pm 3.5ft 8s 5s 16 20 mph 1000.4mb 50f 45f